Time;durP1;ratioP1;P1;durP2;ratioP2;P2;SDS_P1;SDS_P2;PMS_P1;PMS_P2;Temp;Humidity;BMP_temperature;BMP_pressure;BME280_temperature;BME280_humidity;BME280_pressure;Samples;Min_cycle;Max_cycle;Signal;HPM_P1;HPM_P2
2022/02/18 00:02:07;;;;;;;1.50;1.00;;;;;;;4.65;59.67;96119.53;109952;1249;59696;-69
2022/02/18 00:04:37;;;;;;;4.30;1.80;;;;;;;4.63;59.77;96127.23;109915;1251;71175;-67
2022/02/18 00:07:07;;;;;;;2.40;1.50;;;;;;;4.65;59.94;96137.96;109979;1250;68372;-69
2022/02/18 00:09:38;;;;;;;2.30;1.10;;;;;;;4.62;59.76;96137.30;109828;1251;69435;-70
2022/02/18 00:12:07;;;;;;;1.40;1.20;;;;;;;4.65;59.80;96137.13;109942;1250;59779;-66
2022/02/18 00:14:37;;;;;;;2.20;1.20;;;;;;;4.65;59.95;96142.83;109899;1251;59668;-67
2022/02/18 00:17:09;;;;;;;2.40;1.50;;;;;;;4.64;59.76;96141.16;109941;1251;72104;-73
2022/02/18 00:19:39;;;;;;;1.50;1.30;;;;;;;4.65;59.70;96148.11;109840;1251;68589;-75
2022/02/18 00:22:08;;;;;;;1.90;1.40;;;;;;;4.65;59.57;96154.55;109945;1251;69436;-75
2022/02/18 00:24:38;;;;;;;2.40;1.60;;;;;;;4.67;59.56;96156.64;109876;1251;59761;-73
2022/02/18 00:27:07;;;;;;;2.20;1.60;;;;;;;4.65;59.61;96156.98;109920;1251;59727;-69
2022/02/18 00:29:38;;;;;;;2.40;1.30;;;;;;;4.63;59.65;96159.52;109893;1251;71309;-68
2022/02/18 00:32:08;;;;;;;2.30;1.40;;;;;;;4.68;59.65;96159.18;109939;1251;67561;-69
2022/02/18 00:34:39;;;;;;;1.90;1.40;;;;;;;4.69;59.77;96162.67;109951;1250;68612;-72
2022/02/18 00:37:14;;;;;;;2.50;1.70;;;;;;;4.67;59.52;96167.66;109830;1251;59684;-67
2022/02/18 00:39:45;;;;;;;2.90;1.80;;;;;;;4.72;59.78;96169.91;109896;1250;59726;-66
2022/02/18 00:42:14;;;;;;;3.50;1.90;;;;;;;4.72;59.92;96169.58;109912;1251;71397;-69
2022/02/18 00:44:44;;;;;;;2.80;1.70;;;;;;;4.75;60.13;96170.08;109922;1251;68614;-73
2022/02/18 00:47:15;;;;;;;3.00;1.60;;;;;;;4.76;60.34;96170.35;109833;1251;69414;-73
2022/02/18 00:49:45;;;;;;;3.40;2.00;;;;;;;4.78;60.53;96179.35;109896;1250;59702;-73
2022/02/18 00:52:15;;;;;;;2.60;1.60;;;;;;;4.77;60.69;96179.79;110022;1250;59695;-72
2022/02/18 00:54:45;;;;;;;2.60;1.30;;;;;;;4.85;60.64;96184.36;109990;1250;71582;-72
2022/02/18 00:57:16;;;;;;;2.90;1.90;;;;;;;4.85;60.75;96196.11;109678;1251;67749;-74
2022/02/18 00:59:46;;;;;;;2.40;1.70;;;;;;;4.86;61.12;96205.92;109880;1251;68471;-72
2022/02/18 01:02:16;;;;;;;2.90;1.70;;;;;;;4.86;61.40;96218.84;109944;1250;59727;-68
2022/02/18 01:04:46;;;;;;;2.10;1.50;;;;;;;4.84;61.91;96231.08;109984;1251;59702;-68
2022/02/18 01:07:19;;;;;;;1.80;1.20;;;;;;;4.84;62.54;96231.26;109652;1251;70010;-68
2022/02/18 01:09:53;;;;;;;1.70;1.30;;;;;;;4.76;63.19;96241.25;109987;1250;68580;-67
2022/02/18 01:12:23;;;;;;;2.10;1.40;;;;;;;4.70;63.79;96241.70;109794;1250;69235;-72
2022/02/18 01:14:53;;;;;;;2.30;1.50;;;;;;;4.60;64.91;96249.77;109857;1250;59803;-70
2022/02/18 01:17:23;;;;;;;2.70;1.50;;;;;;;4.59;65.13;96256.06;109886;1249;59624;-68
2022/02/18 01:19:52;;;;;;;3.80;1.60;;;;;;;4.50;65.38;96269.80;109996;1249;70719;-71
2022/02/18 01:22:21;;;;;;;2.30;1.70;;;;;;;4.42;65.97;96269.98;109714;1251;67781;-69
2022/02/18 01:24:50;;;;;;;4.00;2.00;;;;;;;4.42;66.17;96272.73;109793;1251;69108;-71
2022/02/18 01:27:20;;;;;;;3.10;1.70;;;;;;;4.29;67.11;96282.71;109900;1251;59700;-73
2022/02/18 01:29:50;;;;;;;3.20;2.00;;;;;;;4.28;67.36;96296.72;109997;1250;59776;-74
2022/02/18 01:32:19;;;;;;;3.40;1.70;;;;;;;4.21;67.95;96297.38;109718;1251;71717;-72
2022/02/18 01:34:49;;;;;;;2.60;2.00;;;;;;;4.15;68.24;96321.25;109891;1250;68587;-72
2022/02/18 01:37:18;;;;;;;2.80;2.00;;;;;;;4.08;69.63;96332.53;109794;1251;68664;-73
2022/02/18 01:39:47;;;;;;;4.50;2.00;;;;;;;4.01;70.14;96339.36;109807;1251;59734;-73
2022/02/18 01:42:18;;;;;;;2.10;1.70;;;;;;;3.94;71.18;96333.11;109995;1250;59684;-72
2022/02/18 01:44:49;;;;;;;3.40;1.80;;;;;;;3.84;71.93;96333.73;109762;1250;71359;-75
2022/02/18 01:47:24;;;;;;;1.60;1.50;;;;;;;3.67;73.05;96327.19;109912;1251;67789;-68
2022/02/18 01:49:58;;;;;;;2.60;1.60;;;;;;;3.53;73.41;96319.77;109932;1250;68431;-69
2022/02/18 01:52:33;;;;;;;5.30;2.10;;;;;;;3.40;74.66;96322.48;110006;1249;59751;-68
2022/02/18 01:55:10;;;;;;;3.60;1.90;;;;;;;3.24;75.46;96316.92;110005;1251;59697;-69
2022/02/18 01:57:47;;;;;;;2.00;1.70;;;;;;;3.25;75.37;96333.20;109749;1252;71041;-68
2022/02/18 02:00:19;;;;;;;2.90;1.50;;;;;;;3.13;75.67;96332.57;109839;1251;66952;-69
2022/02/18 02:02:51;;;;;;;3.60;2.00;;;;;;;2.98;76.57;96342.46;109775;1251;69266;-68
2022/02/18 02:05:21;;;;;;;2.10;1.70;;;;;;;2.81;77.13;96352.02;109682;1251;59748;-69
2022/02/18 02:07:52;;;;;;;2.90;1.70;;;;;;;2.85;76.58;96364.17;109829;1251;59757;-69
2022/02/18 02:10:23;;;;;;;5.00;2.30;;;;;;;2.91;76.39;96375.91;109755;1251;70834;-67
2022/02/18 02:12:54;;;;;;;2.00;1.70;;;;;;;2.83;77.62;96378.63;109777;1251;68638;-72
2022/02/18 02:15:30;;;;;;;2.10;1.70;;;;;;;2.88;77.07;96392.56;109825;1251;68742;-73
2022/02/18 02:18:01;;;;;;;2.90;1.90;;;;;;;2.85;77.41;96391.70;109886;1251;59670;-75
2022/02/18 02:20:31;;;;;;;3.00;2.30;;;;;;;2.90;77.24;96398.13;109764;1251;59771;-74
2022/02/18 02:23:01;;;;;;;;;;;;;;;2.85;77.73;96397.92;109866;1251;71422;-70
2022/02/18 02:25:37;;;;;;;5.10;2.10;;;;;;;2.95;76.98;96404.55;109675;1251;68570;-69
2022/02/18 02:28:26;;;;;;;3.20;2.40;;;;;;;2.96;76.99;96407.58;109819;1250;68724;-71
2022/02/18 02:30:57;;;;;;;2.50;1.70;;;;;;;2.92;76.84;96410.92;109682;1251;59745;-73
2022/02/18 02:33:27;;;;;;;2.90;1.70;;;;;;;2.82;77.44;96415.98;109900;1251;59698;-68
2022/02/18 02:35:57;;;;;;;;;;;;;;;2.77;77.56;96417.80;109846;1251;71575;-68
2022/02/18 02:38:27;;;;;;;3.50;2.00;;;;;;;2.76;77.28;96420.33;109645;1253;68792;-73
2022/02/18 02:40:58;;;;;;;3.20;1.90;;;;;;;2.75;77.30;96427.73;109855;1250;68374;-67
2022/02/18 02:43:28;;;;;;;4.10;2.30;;;;;;;2.70;77.68;96436.79;109396;1250;644936;-67
2022/02/18 02:45:59;;;;;;;3.20;2.60;;;;;;;2.65;77.78;96437.78;109959;1250;59659;-69
2022/02/18 02:48:29;;;;;;;3.60;2.00;;;;;;;2.72;77.00;96442.39;109884;1250;70602;-66
2022/02/18 02:51:04;;;;;;;2.40;1.80;;;;;;;2.75;77.29;96449.73;109844;1250;66900;-74
2022/02/18 02:53:35;;;;;;;3.90;1.70;;;;;;;2.72;76.87;96454.77;109945;1251;68541;-72
2022/02/18 02:56:05;;;;;;;4.00;1.90;;;;;;;2.68;76.64;96461.04;109831;1249;59741;-74
2022/02/18 02:58:37;;;;;;;3.40;1.90;;;;;;;2.63;76.46;96465.45;109807;1251;60078;-73
2022/02/18 03:01:07;;;;;;;2.00;1.60;;;;;;;2.58;76.45;96469.81;109777;1251;71429;-73
2022/02/18 03:03:49;;;;;;;3.00;1.80;;;;;;;2.56;76.33;96480.07;109785;1250;67861;-72
2022/02/18 03:06:18;;;;;;;2.40;1.90;;;;;;;2.57;76.23;96486.89;109853;1251;69412;-73
2022/02/18 03:08:49;;;;;;;4.50;2.30;;;;;;;2.57;76.38;96496.02;109922;1251;59696;-74
2022/02/18 03:11:33;;;;;;;4.80;2.30;;;;;;;2.57;76.59;96498.09;109891;1250;59751;-67
2022/02/18 03:14:25;;;;;;;3.50;1.50;;;;;;;2.57;76.78;96508.24;109890;1250;71403;-69
2022/02/18 03:17:06;;;;;;;3.40;2.10;;;;;;;2.54;77.06;96514.92;109901;1250;68364;-68
2022/02/18 03:19:38;;;;;;;2.90;2.10;;;;;;;2.57;77.12;96518.59;109762;1251;68818;-68
2022/02/18 03:22:08;;;;;;;3.00;2.60;;;;;;;2.56;77.13;96516.59;109899;1250;59724;-68
2022/02/18 03:24:38;;;;;;;2.70;2.40;;;;;;;2.56;77.19;96518.98;110175;1250;59742;-68
2022/02/18 03:27:08;;;;;;;3.20;2.20;;;;;;;2.55;76.88;96523.63;110027;1250;71450;-69
2022/02/18 03:29:41;;;;;;;2.30;1.90;;;;;;;2.52;77.21;96531.92;109985;1250;68278;-75
2022/02/18 03:32:24;;;;;;;2.70;2.20;;;;;;;2.42;76.76;96534.34;109859;1250;69464;-73
2022/02/18 03:34:53;;;;;;;2.00;1.90;;;;;;;2.33;77.14;96532.77;109811;1250;59804;-72
2022/02/18 03:37:31;;;;;;;2.00;1.60;;;;;;;2.35;76.47;96535.08;109889;1250;59666;-69
2022/02/18 03:40:06;;;;;;;2.40;1.60;;;;;;;2.36;75.79;96536.55;109938;1250;70727;-69
2022/02/18 03:42:36;;;;;;;;;;;;;;;2.29;76.25;96537.46;109751;1251;68368;-68
2022/02/18 03:45:07;;;;;;;1.60;1.50;;;;;;;2.13;76.63;96540.88;109862;1250;69458;-67
2022/02/18 03:47:37;;;;;;;2.80;1.40;;;;;;;2.09;76.36;96540.76;109731;1251;59703;-73
2022/02/18 03:50:08;;;;;;;2.10;1.40;;;;;;;2.11;75.82;96540.30;109781;1250;59739;-72
2022/02/18 03:52:38;;;;;;;1.40;1.30;;;;;;;2.14;75.30;96545.84;109607;1251;71499;-68
2022/02/18 03:55:08;;;;;;;2.50;1.60;;;;;;;2.05;75.43;96553.02;109746;1251;68644;-69
2022/02/18 03:57:43;;;;;;;1.00;1.00;;;;;;;2.09;75.18;96551.94;109741;1251;69281;-71
2022/02/18 04:00:13;;;;;;;1.50;1.20;;;;;;;1.99;75.98;96543.35;109972;1250;59972;-69
2022/02/18 04:02:49;;;;;;;1.40;1.30;;;;;;;1.87;76.41;96542.61;109808;1250;60151;-71
2022/02/18 04:05:38;;;;;;;1.80;1.30;;;;;;;1.86;76.40;96540.92;109957;1250;70653;-68
2022/02/18 04:08:22;;;;;;;2.10;1.30;;;;;;;1.80;76.66;96541.93;109813;1250;67569;-75
2022/02/18 04:10:51;;;;;;;2.60;1.50;;;;;;;1.79;76.40;96537.70;109843;1250;69325;-69
2022/02/18 04:13:23;;;;;;;2.90;1.40;;;;;;;1.72;76.43;96540.79;109696;1251;59676;-67
2022/02/18 04:15:54;;;;;;;2.50;1.30;;;;;;;1.75;75.79;96543.55;109791;1251;59678;-69
2022/02/18 04:18:24;;;;;;;1.40;1.30;;;;;;;1.69;76.16;96547.30;109783;1250;71514;-71
2022/02/18 04:20:56;;;;;;;1.40;1.20;;;;;;;1.67;75.80;96548.29;109981;1250;67623;-69
2022/02/18 04:24:04;;;;;;;2.20;1.40;;;;;;;1.60;76.26;96543.69;109827;1251;69492;-73
2022/02/18 04:26:33;;;;;;;1.60;1.30;;;;;;;1.58;76.33;96546.67;109843;1249;60215;-74
2022/02/18 04:29:02;;;;;;;1.70;1.20;;;;;;;1.55;76.14;96551.95;109797;1250;59708;-70
2022/02/18 04:31:33;;;;;;;1.80;1.50;;;;;;;1.55;75.95;96553.83;109945;1250;71355;-66
2022/02/18 04:34:03;;;;;;;1.90;1.30;;;;;;;1.49;76.38;96558.08;109872;1250;68633;-68
2022/02/18 04:36:33;;;;;;;2.40;1.30;;;;;;;1.48;76.17;96565.85;109847;1250;69675;-67
2022/02/18 04:39:03;;;;;;;2.00;1.60;;;;;;;1.42;76.75;96580.95;109940;1250;59684;-69
2022/02/18 04:41:33;;;;;;;3.50;1.90;;;;;;;1.42;76.59;96583.36;110090;1250;59633;-72
2022/02/18 04:44:03;;;;;;;4.30;2.20;;;;;;;1.38;76.94;96588.20;109969;1250;72113;-72
2022/02/18 04:46:32;;;;;;;2.30;1.90;;;;;;;1.27;77.32;96585.45;109937;1250;68639;-71
2022/02/18 04:49:02;;;;;;;3.30;2.20;;;;;;;1.24;77.20;96593.67;109912;1250;69070;-74
2022/02/18 04:51:31;;;;;;;2.40;1.80;;;;;;;1.14;77.82;96603.77;109966;1250;59715;-73
2022/02/18 04:54:01;;;;;;;3.10;2.40;;;;;;;1.09;78.35;96623.92;109916;1250;59939;-72
2022/02/18 04:56:31;;;;;;;4.10;2.10;;;;;;;1.04;78.60;96630.88;109706;1251;71535;-71
2022/02/18 04:59:00;;;;;;;3.60;2.50;;;;;;;1.02;78.38;96636.80;109937;1250;67674;-72
2022/02/18 05:01:30;;;;;;;3.20;2.40;;;;;;;0.92;79.38;96629.70;109936;1250;69483;-68
2022/02/18 05:03:59;;;;;;;3.20;2.40;;;;;;;0.82;79.97;96634.77;109873;1248;59699;-67
2022/02/18 05:06:30;;;;;;;3.70;2.70;;;;;;;0.73;80.39;96647.35;109923;1250;59685;-69
2022/02/18 05:09:00;;;;;;;3.70;2.60;;;;;;;0.69;80.67;96651.15;109801;1250;71569;-70
2022/02/18 05:11:29;;;;;;;6.00;2.70;;;;;;;0.69;80.79;96644.98;109900;1250;68611;-71
2022/02/18 05:13:58;;;;;;;3.40;2.80;;;;;;;0.64;81.10;96653.63;109935;1250;68683;-71
2022/02/18 05:16:27;;;;;;;3.50;2.10;;;;;;;0.62;81.32;96660.39;109923;1249;59753;-68
2022/02/18 05:18:58;;;;;;;4.00;2.90;;;;;;;0.62;81.51;96662.48;109822;1250;59604;-69
2022/02/18 05:21:27;;;;;;;3.10;2.70;;;;;;;0.57;81.78;96666.98;109881;1250;71569;-72
2022/02/18 05:23:56;;;;;;;5.70;3.30;;;;;;;0.51;82.24;96676.83;109887;1250;67529;-73
2022/02/18 05:26:25;;;;;;;3.90;2.70;;;;;;;0.47;82.38;96680.42;109927;1250;68615;-72
2022/02/18 05:28:54;;;;;;;4.40;2.60;;;;;;;0.42;82.48;96688.02;109802;1250;59680;-67
2022/02/18 05:31:24;;;;;;;3.70;3.20;;;;;;;0.39;82.50;96693.85;109940;1250;59614;-74
2022/02/18 05:33:53;;;;;;;4.60;3.70;;;;;;;0.34;82.97;96704.68;109873;1250;70766;-69
2022/02/18 05:36:25;;;;;;;6.10;3.00;;;;;;;0.31;83.15;96716.63;109807;1250;67638;-69
2022/02/18 05:38:55;;;;;;;6.30;3.50;;;;;;;0.29;83.25;96720.00;109768;1251;69510;-72
2022/02/18 05:41:25;;;;;;;3.70;2.50;;;;;;;0.30;83.21;96726.29;109936;1250;59701;-68
2022/02/18 05:43:54;;;;;;;4.50;3.50;;;;;;;0.30;82.91;96736.58;109933;1250;59640;-68
2022/02/18 05:46:23;;;;;;;3.30;2.70;;;;;;;0.30;82.67;96740.16;109934;1250;70862;-68
2022/02/18 05:48:52;;;;;;;6.60;4.10;;;;;;;0.39;81.95;96747.30;109866;1250;68385;-71
2022/02/18 05:51:21;;;;;;;4.30;3.10;;;;;;;0.40;82.43;96745.57;109944;1250;68660;-68
2022/02/18 05:53:50;;;;;;;5.50;4.00;;;;;;;0.43;81.74;96744.53;110064;1249;59768;-72
2022/02/18 05:56:19;;;;;;;9.00;4.50;;;;;;;0.39;82.48;96756.55;109924;1250;59726;-73
2022/02/18 05:58:48;;;;;;;5.00;3.60;;;;;;;0.36;82.56;96758.75;109996;1249;71577;-74
2022/02/18 06:01:20;;;;;;;5.00;3.90;;;;;;;0.38;82.56;96757.49;109755;1250;68818;-73
2022/02/18 06:03:50;;;;;;;7.80;4.10;;;;;;;0.44;82.13;96769.02;109877;1250;68628;-72
2022/02/18 06:06:19;;;;;;;4.70;3.50;;;;;;;0.51;81.82;96768.24;109950;1250;59754;-70
2022/02/18 06:08:48;;;;;;;4.70;3.10;;;;;;;0.64;81.07;96777.45;109921;1250;59691;-71
2022/02/18 06:11:17;;;;;;;5.00;3.20;;;;;;;0.76;80.44;96781.04;109883;1250;70781;-69
2022/02/18 06:13:47;;;;;;;5.50;3.50;;;;;;;0.91;79.64;96786.54;109807;1250;68732;-67
2022/02/18 06:16:16;;;;;;;3.30;2.80;;;;;;;1.05;78.99;96790.23;109972;1250;68733;-67
2022/02/18 06:18:45;;;;;;;6.50;3.50;;;;;;;1.13;78.53;96795.68;109907;1250;59680;-73
2022/02/18 06:21:14;;;;;;;3.20;2.60;;;;;;;1.20;78.06;96799.66;110129;1250;59694;-75
2022/02/18 06:23:43;;;;;;;4.80;3.10;;;;;;;1.29;77.82;96812.30;109810;1251;70881;-73
2022/02/18 06:26:12;;;;;;;3.90;2.80;;;;;;;1.40;77.24;96816.60;109945;1250;69113;-73
2022/02/18 06:28:42;;;;;;;4.50;2.80;;;;;;;1.58;76.97;96818.73;109953;1250;69625;-75
2022/02/18 06:31:11;;;;;;;3.60;3.30;;;;;;;1.75;76.68;96825.48;109898;1250;59790;-71
2022/02/18 06:33:40;;;;;;;4.30;3.10;;;;;;;1.87;75.87;96835.23;109778;1251;59720;-69
2022/02/18 06:36:11;;;;;;;4.40;3.20;;;;;;;1.99;75.34;96830.83;110084;1249;71660;-68
2022/02/18 06:38:42;;;;;;;5.70;3.30;;;;;;;2.11;75.10;96838.03;109818;1250;67793;-67
2022/02/18 06:41:12;;;;;;;3.20;2.60;;;;;;;2.21;74.40;96840.48;109915;1250;69461;-75
2022/02/18 06:43:41;;;;;;;4.00;2.60;;;;;;;2.33;74.47;96843.85;109765;1251;59759;-72
2022/02/18 06:46:10;;;;;;;4.10;2.60;;;;;;;2.37;74.06;96846.38;110059;1250;60071;-77
2022/02/18 06:48:39;;;;;;;5.00;2.30;;;;;;;2.45;74.00;96850.31;109870;1249;71570;-74
2022/02/18 06:51:08;;;;;;;3.40;2.70;;;;;;;2.46;73.53;96855.77;109880;1250;68602;-74
2022/02/18 06:53:38;;;;;;;4.00;2.40;;;;;;;2.46;73.32;96857.13;109907;1250;69486;-75
2022/02/18 06:56:07;;;;;;;3.80;2.40;;;;;;;2.44;73.38;96853.60;109955;1250;59676;-72
2022/02/18 06:58:36;;;;;;;3.30;2.70;;;;;;;2.47;73.10;96851.73;109959;1250;59753;-72
2022/02/18 07:01:05;;;;;;;5.90;2.90;;;;;;;2.45;73.02;96846.88;109834;1250;71271;-70
2022/02/18 07:03:34;;;;;;;5.10;2.70;;;;;;;2.53;72.79;96847.68;109815;1250;67920;-71
2022/02/18 07:06:03;;;;;;;5.80;3.40;;;;;;;2.92;71.93;96848.64;109738;1250;68793;-73
2022/02/18 07:08:33;;;;;;;3.40;3.10;;;;;;;3.59;71.05;96851.30;109917;1250;59717;-68
2022/02/18 07:11:02;;;;;;;5.50;3.70;;;;;;;4.23;66.82;96855.53;109861;1250;59629;-71
2022/02/18 07:13:31;;;;;;;5.40;3.00;;;;;;;4.81;65.62;96859.47;109944;1249;71566;-71
2022/02/18 07:16:01;;;;;;;6.60;2.90;;;;;;;5.32;63.60;96869.76;109981;1250;68849;-75
2022/02/18 07:18:30;;;;;;;4.30;3.30;;;;;;;5.63;63.58;96869.08;109905;1250;68898;-72
2022/02/18 07:20:59;;;;;;;3.80;2.80;;;;;;;5.53;62.85;96866.02;109798;1251;59646;-69
2022/02/18 07:23:28;;;;;;;4.00;2.90;;;;;;;6.08;63.24;96879.08;110110;1249;59745;-68
2022/02/18 07:25:57;;;;;;;3.80;3.20;;;;;;;6.60;60.03;96881.99;109982;1250;70814;-69
2022/02/18 07:28:28;;;;;;;5.40;3.30;;;;;;;6.56;58.75;96878.58;109936;1250;68392;-74
2022/02/18 07:30:58;;;;;;;5.00;2.80;;;;;;;6.78;57.53;96867.67;109893;1250;68900;-73
2022/02/18 07:33:27;;;;;;;5.00;2.10;;;;;;;7.25;56.34;96865.52;109734;1250;60170;-74
2022/02/18 07:35:56;;;;;;;5.60;2.60;;;;;;;7.57;55.02;96862.47;109866;1250;59696;-71
2022/02/18 07:38:25;;;;;;;3.40;2.60;;;;;;;7.15;56.40;96861.02;110060;1249;71025;-67
2022/02/18 07:40:54;;;;;;;5.10;2.20;;;;;;;6.52;56.79;96871.27;109800;1251;67904;-73
2022/02/18 07:43:25;;;;;;;4.20;2.60;;;;;;;6.69;55.90;96878.98;109807;1251;67710;-69
2022/02/18 07:46:08;;;;;;;4.90;3.00;;;;;;;6.80;54.85;96878.76;109984;1250;59752;-67
2022/02/18 07:48:37;;;;;;;4.50;2.70;;;;;;;6.97;54.62;96881.28;110104;1249;59706;-67
2022/02/18 07:51:09;;;;;;;5.50;2.70;;;;;;;7.54;52.75;96876.00;109997;1250;72248;-68
2022/02/18 07:53:39;;;;;;;4.60;2.30;;;;;;;8.10;52.50;96877.84;109922;1250;67787;-65
2022/02/18 07:56:08;;;;;;;4.70;2.20;;;;;;;8.28;49.67;96879.98;109847;1250;69434;-69
2022/02/18 07:58:37;;;;;;;3.50;2.80;;;;;;;8.93;48.19;96875.48;110116;1250;59683;-67
2022/02/18 08:01:17;;;;;;;3.50;2.30;;;;;;;8.92;46.99;96880.54;109953;1250;59701;-70
2022/02/18 08:03:48;;;;;;;3.70;2.10;;;;;;;9.16;46.75;96882.20;109965;1250;70783;-69
2022/02/18 08:06:17;;;;;;;4.60;2.40;;;;;;;9.87;47.13;96888.73;110123;1249;68310;-71
2022/02/18 08:08:47;;;;;;;3.80;2.40;;;;;;;10.66;44.89;96895.23;109920;1250;69466;-70
2022/02/18 08:11:18;;;;;;;5.30;2.20;;;;;;;11.10;42.63;96901.58;109832;1250;59809;-68
2022/02/18 08:13:47;;;;;;;3.70;2.20;;;;;;;11.80;41.74;96897.19;109913;1250;59736;-70
2022/02/18 08:16:16;;;;;;;3.00;1.90;;;;;;;12.36;40.32;96895.02;110162;1249;69753;-68
2022/02/18 08:18:46;;;;;;;3.60;1.80;;;;;;;12.83;40.55;96902.13;110165;1250;67953;-66
2022/02/18 08:21:15;;;;;;;4.80;2.00;;;;;;;13.43;40.11;96910.51;109915;1250;69292;-68
2022/02/18 08:23:44;;;;;;;4.40;1.90;;;;;;;13.81;37.43;96909.25;110019;1250;59732;-70
2022/02/18 08:26:13;;;;;;;4.10;2.00;;;;;;;14.35;35.42;96913.23;110036;1250;59688;-71
2022/02/18 08:28:45;;;;;;;3.30;1.60;;;;;;;14.48;34.62;96919.41;110063;1250;71593;-71
2022/02/18 08:31:15;;;;;;;4.50;2.00;;;;;;;14.64;34.58;96916.15;109933;1250;68590;-69
2022/02/18 08:33:44;;;;;;;2.90;1.70;;;;;;;14.71;33.76;96919.78;109872;1250;68648;-70
2022/02/18 08:36:13;;;;;;;4.40;2.10;;;;;;;13.59;34.29;96923.02;109848;1250;59777;-70
2022/02/18 08:38:42;;;;;;;3.30;1.60;;;;;;;13.45;35.20;96924.55;109748;1250;59743;-71
2022/02/18 08:41:11;;;;;;;5.40;2.30;;;;;;;13.68;35.01;96917.47;109910;1249;71527;-68
2022/02/18 08:43:40;;;;;;;4.70;2.00;;;;;;;12.88;35.07;96920.18;109729;1250;68626;-68
2022/02/18 08:46:09;;;;;;;4.40;2.10;;;;;;;12.47;36.02;96913.06;110021;1248;67770;-70
2022/02/18 08:48:38;;;;;;;3.00;1.70;;;;;;;13.20;36.04;96920.02;109955;1250;59729;-70
2022/02/18 08:51:07;;;;;;;3.50;1.60;;;;;;;13.81;35.75;96912.42;109855;1250;59787;-71
2022/02/18 08:53:38;;;;;;;;;;;;;;;14.70;33.86;96910.23;109808;1250;70558;-70
2022/02/18 08:56:06;;;;;;;;;;;;;;;15.51;32.88;96911.36;109987;1250;68412;-70
2022/02/18 08:58:35;;;;;;;2.30;1.30;;;;;;;16.15;30.80;96917.02;109919;1250;68706;-72
2022/02/18 09:01:10;;;;;;;2.60;1.30;;;;;;;16.73;31.93;96922.00;109896;1250;59755;-73
2022/02/18 09:03:39;;;;;;;2.20;1.50;;;;;;;17.67;30.38;96933.58;109824;1251;60050;-71
2022/02/18 09:06:09;;;;;;;4.20;1.40;;;;;;;18.41;27.94;96927.74;109802;1250;71318;-71
2022/02/18 09:08:38;;;;;;;3.40;1.60;;;;;;;18.78;27.67;96937.44;109850;1249;68206;-72
2022/02/18 09:11:07;;;;;;;2.90;1.50;;;;;;;18.48;26.62;96929.59;109666;1251;69478;-68
2022/02/18 09:13:36;;;;;;;3.70;1.40;;;;;;;19.00;26.52;96934.07;109855;1251;59767;-71
2022/02/18 09:16:05;;;;;;;3.20;1.30;;;;;;;19.22;24.85;96932.95;109710;1251;59767;-72
2022/02/18 09:18:49;;;;;;;3.40;1.40;;;;;;;18.77;25.19;96946.77;109917;1250;69765;-74
2022/02/18 09:21:18;;;;;;;3.40;1.50;;;;;;;18.69;25.87;96954.38;109876;1250;68632;-68
2022/02/18 09:23:59;;;;;;;3.90;1.70;;;;;;;18.47;24.57;96950.64;109861;1250;68680;-69
2022/02/18 09:26:28;;;;;;;2.60;1.30;;;;;;;18.35;24.54;96953.21;109838;1250;59763;-69
2022/02/18 09:29:00;;;;;;;7.70;1.90;;;;;;;17.76;25.17;96955.40;109854;1249;59710;-69
2022/02/18 09:31:29;;;;;;;3.00;1.40;;;;;;;17.82;25.78;96967.70;109878;1249;71603;-70
2022/02/18 09:33:59;;;;;;;2.50;1.50;;;;;;;17.76;26.20;96967.89;109951;1250;68552;-73
2022/02/18 09:36:28;;;;;;;4.40;1.50;;;;;;;17.45;26.49;96961.35;109983;1250;68670;-71
2022/02/18 09:38:58;;;;;;;4.00;2.40;;;;;;;17.41;26.25;96975.35;109927;1249;59812;-73
2022/02/18 09:41:27;;;;;;;3.00;1.90;;;;;;;17.33;25.82;96977.63;109870;1250;59760;-68
2022/02/18 09:44:00;;;;;;;3.80;1.80;;;;;;;16.38;27.21;96978.56;109962;1250;69676;-71
2022/02/18 09:46:29;;;;;;;4.10;1.70;;;;;;;15.49;28.21;96983.52;109961;1250;67830;-71
2022/02/18 09:48:59;;;;;;;3.20;1.50;;;;;;;14.72;28.38;96980.41;109840;1250;69686;-72
2022/02/18 09:51:28;;;;;;;3.20;1.70;;;;;;;13.72;29.56;96979.10;109626;1252;59750;-74
2022/02/18 09:53:58;;;;;;;3.40;1.50;;;;;;;12.35;31.54;96984.73;109821;1250;59637;-72
2022/02/18 09:56:33;;;;;;;3.80;1.50;;;;;;;11.62;32.56;96991.58;109938;1248;71005;-69
2022/02/18 09:59:04;;;;;;;2.40;1.40;;;;;;;11.37;33.82;96995.23;109674;1251;68535;-68
2022/02/18 10:01:34;;;;;;;3.60;1.60;;;;;;;12.64;32.80;96992.47;109959;1250;68640;-67
2022/02/18 10:04:03;;;;;;;3.10;1.30;;;;;;;13.00;31.29;96989.48;109890;1251;60150;-68
2022/02/18 10:06:34;;;;;;;4.00;1.90;;;;;;;12.70;31.49;96993.67;110010;1250;59713;-68
2022/02/18 10:09:03;;;;;;;3.70;1.60;;;;;;;13.41;30.81;96993.83;109969;1249;72105;-69
2022/02/18 10:11:58;;;;;;;4.60;1.70;;;;;;;14.25;30.23;97000.48;109961;1250;67912;-70
2022/02/18 10:14:47;;;;;;;2.20;1.40;;;;;;;14.50;29.52;96994.92;109906;1250;69707;-67
2022/02/18 10:17:16;;;;;;;3.10;1.50;;;;;;;14.10;30.13;97004.24;109826;1250;59716;-68
2022/02/18 10:19:53;;;;;;;3.50;1.70;;;;;;;14.25;30.18;97006.02;109954;1250;59717;-65
2022/02/18 10:22:27;;;;;;;3.20;1.50;;;;;;;14.38;31.53;97008.39;109985;1250;71515;-67
2022/02/18 10:25:05;;;;;;;2.70;1.40;;;;;;;15.54;29.48;97006.80;109803;1250;69266;-66
2022/02/18 10:27:43;;;;;;;2.30;1.60;;;;;;;15.65;27.46;97002.55;109817;1250;69425;-69
2022/02/18 10:30:23;;;;;;;2.90;1.20;;;;;;;15.71;26.10;97003.25;109832;1250;59813;-67
2022/02/18 10:32:53;;;;;;;4.00;1.50;;;;;;;16.59;26.58;96998.61;109904;1250;59637;-68
2022/02/18 10:35:33;;;;;;;2.70;1.40;;;;;;;17.00;26.20;96997.11;109947;1249;71546;-70
2022/02/18 10:38:03;;;;;;;2.60;1.30;;;;;;;17.34;26.70;96993.17;109752;1251;68054;-68
2022/02/18 10:40:41;;;;;;;3.10;1.60;;;;;;;17.98;25.79;96995.29;109758;1251;69463;-68
2022/02/18 10:43:12;;;;;;;3.20;1.50;;;;;;;18.57;24.67;96997.91;109711;1251;59780;-67
2022/02/18 10:45:53;;;;;;;3.00;1.40;;;;;;;17.67;24.51;97000.85;109698;1250;59702;-69
2022/02/18 10:48:23;;;;;;;3.50;1.40;;;;;;;16.65;26.15;97000.59;109766;1250;71627;-67
2022/02/18 10:51:14;;;;;;;2.40;1.20;;;;;;;15.55;27.41;97004.38;109835;1250;68612;-68
2022/02/18 10:53:48;;;;;;;3.70;1.60;;;;;;;15.02;28.37;97002.95;109894;1250;68554;-71
2022/02/18 10:56:19;;;;;;;3.10;1.30;;;;;;;14.29;28.33;96995.58;109807;1250;59744;-72
2022/02/18 10:58:51;;;;;;;2.50;1.30;;;;;;;13.90;28.88;96993.52;109724;1250;59682;-67
2022/02/18 11:01:27;;;;;;;3.20;1.20;;;;;;;13.70;28.31;97006.05;109681;1250;71589;-72
2022/02/18 11:04:04;;;;;;;5.10;1.40;;;;;;;14.15;28.62;97010.52;109941;1250;67845;-67
2022/02/18 11:06:36;;;;;;;3.40;1.40;;;;;;;13.97;28.86;97006.06;109931;1250;68821;-68
2022/02/18 11:09:07;;;;;;;3.30;1.80;;;;;;;13.22;29.83;97001.38;109994;1250;59776;-70
2022/02/18 11:11:45;;;;;;;4.80;1.80;;;;;;;12.83;30.89;97000.04;109789;1250;59686;-70
2022/02/18 11:14:17;;;;;;;2.10;1.20;;;;;;;13.16;30.92;97007.14;109911;1250;71574;-67
2022/02/18 11:16:52;;;;;;;4.10;1.50;;;;;;;13.33;30.39;97009.13;109865;1250;68825;-67
2022/02/18 11:19:25;;;;;;;3.70;1.60;;;;;;;13.39;30.13;97011.53;109932;1250;68826;-71
2022/02/18 11:22:14;;;;;;;3.30;1.70;;;;;;;13.62;29.13;97011.61;109946;1250;59764;-70
2022/02/18 11:24:48;;;;;;;2.10;1.30;;;;;;;13.43;29.18;97019.24;109943;1250;59755;-69
2022/02/18 11:27:17;;;;;;;3.20;1.60;;;;;;;13.09;29.51;97020.56;109871;1250;70801;-66
2022/02/18 11:29:45;;;;;;;2.10;1.40;;;;;;;12.13;30.75;97026.94;109967;1250;68616;-68
2022/02/18 11:32:27;;;;;;;2.60;1.50;;;;;;;11.65;31.70;97027.31;109911;1250;69033;-68
2022/02/18 11:35:14;;;;;;;4.40;1.80;;;;;;;11.67;32.20;97027.46;109933;1250;59754;-69
2022/02/18 11:37:52;;;;;;;3.00;1.50;;;;;;;11.96;32.24;97027.89;109874;1250;59677;-68
2022/02/18 11:40:39;;;;;;;2.60;1.60;;;;;;;11.65;32.27;97033.57;109911;1250;71516;-69
2022/02/18 11:43:27;;;;;;;2.80;1.70;;;;;;;11.40;32.48;97036.14;109901;1250;68008;-69
2022/02/18 11:46:05;;;;;;;3.30;1.50;;;;;;;11.48;32.72;97030.99;109909;1249;69135;-70
2022/02/18 11:48:49;;;;;;;2.10;1.60;;;;;;;12.67;31.92;97030.00;109899;1250;59764;-68
2022/02/18 11:51:21;;;;;;;2.30;1.60;;;;;;;14.46;29.47;97024.94;109908;1250;59678;-71
2022/02/18 11:53:59;;;;;;;3.90;1.50;;;;;;;16.03;27.78;97027.34;109991;1250;71633;-72